sensor_id;sensor_type;location;lat;lon;timestamp;temperature;humidity
19728;DHT22;10015;52.530;13.390;2024-03-25T00:00:13;8.00;99.90
19728;DHT22;10015;52.530;13.390;2024-03-25T00:02:40;7.90;99.90
19728;DHT22;10015;52.530;13.390;2024-03-25T00:05:07;7.90;99.90
19728;DHT22;10015;52.530;13.390;2024-03-25T00:07:37;7.80;99.90
19728;DHT22;10015;52.530;13.390;2024-03-25T00:10:04;7.80;99.90
19728;DHT22;10015;52.530;13.390;2024-03-25T00:12:32;7.70;99.90
19728;DHT22;10015;52.530;13.390;2024-03-25T00:14:58;7.70;99.90
19728;DHT22;10015;52.530;13.390;2024-03-25T00:17:24;7.60;99.90
19728;DHT22;10015;52.530;13.390;2024-03-25T00:19:50;7.60;99.90
19728;DHT22;10015;52.530;13.390;2024-03-25T00:22:17;7.60;99.90
19728;DHT22;10015;52.530;13.390;2024-03-25T00:24:48;7.60;99.90
19728;DHT22;10015;52.530;13.390;2024-03-25T00:27:14;7.60;99.90
19728;DHT22;10015;52.530;13.390;2024-03-25T00:29:41;7.70;99.90
19728;DHT22;10015;52.530;13.390;2024-03-25T00:32:07;7.70;99.90
19728;DHT22;10015;52.530;13.390;2024-03-25T00:34:34;7.70;99.90
19728;DHT22;10015;52.530;13.390;2024-03-25T00:37:00;7.70;99.90
19728;DHT22;10015;52.530;13.390;2024-03-25T00:39:26;7.70;99.90
19728;DHT22;10015;52.530;13.390;2024-03-25T00:41:53;7.60;99.90
19728;DHT22;10015;52.530;13.390;2024-03-25T00:44:19;7.60;99.90
19728;DHT22;10015;52.530;13.390;2024-03-25T00:46:45;7.60;99.90
19728;DHT22;10015;52.530;13.390;2024-03-25T00:49:12;7.50;99.90
19728;DHT22;10015;52.530;13.390;2024-03-25T00:51:38;7.50;99.90
19728;DHT22;10015;52.530;13.390;2024-03-25T00:54:04;7.50;99.90
19728;DHT22;10015;52.530;13.390;2024-03-25T00:56:31;7.40;99.90
19728;DHT22;10015;52.530;13.390;2024-03-25T00:58:57;7.50;99.90
19728;DHT22;10015;52.530;13.390;2024-03-25T01:01:28;7.60;99.90
19728;DHT22;10015;52.530;13.390;2024-03-25T01:03:55;7.70;99.90
19728;DHT22;10015;52.530;13.390;2024-03-25T01:06:21;7.80;99.90
19728;DHT22;10015;52.530;13.390;2024-03-25T01:08:47;7.90;99.90
19728;DHT22;10015;52.530;13.390;2024-03-25T01:11:12;8.00;99.90
19728;DHT22;10015;52.530;13.390;2024-03-25T01:13:38;8.00;99.90
19728;DHT22;10015;52.530;13.390;2024-03-25T01:16:07;8.10;99.90
19728;DHT22;10015;52.530;13.390;2024-03-25T01:18:33;8.10;99.90
19728;DHT22;10015;52.530;13.390;2024-03-25T01:20:59;8.00;99.90
19728;DHT22;10015;52.530;13.390;2024-03-25T01:23:25;8.00;99.90
19728;DHT22;10015;52.530;13.390;2024-03-25T01:25:52;8.00;99.90
19728;DHT22;10015;52.530;13.390;2024-03-25T01:28:18;8.00;99.90
19728;DHT22;10015;52.530;13.390;2024-03-25T01:30:44;8.00;99.90
19728;DHT22;10015;52.530;13.390;2024-03-25T01:33:10;7.90;99.90
19728;DHT22;10015;52.530;13.390;2024-03-25T01:35:36;7.90;99.90
19728;DHT22;10015;52.530;13.390;2024-03-25T01:38:02;7.90;99.90
19728;DHT22;10015;52.530;13.390;2024-03-25T01:40:29;8.00;99.90
19728;DHT22;10015;52.530;13.390;2024-03-25T01:43:03;8.10;99.90
19728;DHT22;10015;52.530;13.390;2024-03-25T01:45:31;8.10;99.90
19728;DHT22;10015;52.530;13.390;2024-03-25T01:47:59;8.10;99.90
19728;DHT22;10015;52.530;13.390;2024-03-25T01:50:25;8.00;99.90
19728;DHT22;10015;52.530;13.390;2024-03-25T01:52:52;7.80;99.90
19728;DHT22;10015;52.530;13.390;2024-03-25T01:55:21;7.80;99.90
19728;DHT22;10015;52.530;13.390;2024-03-25T01:57:48;7.80;99.90
19728;DHT22;10015;52.530;13.390;2024-03-25T02:00:15;7.80;99.90
19728;DHT22;10015;52.530;13.390;2024-03-25T02:02:49;7.80;99.90
19728;DHT22;10015;52.530;13.390;2024-03-25T02:05:17;7.70;99.90
19728;DHT22;10015;52.530;13.390;2024-03-25T02:07:44;7.60;99.90
19728;DHT22;10015;52.530;13.390;2024-03-25T02:10:11;7.70;99.90
19728;DHT22;10015;52.530;13.390;2024-03-25T02:12:44;7.70;99.90
19728;DHT22;10015;52.530;13.390;2024-03-25T02:15:11;7.60;99.90
19728;DHT22;10015;52.530;13.390;2024-03-25T02:17:37;7.70;99.90
19728;DHT22;10015;52.530;13.390;2024-03-25T02:20:04;7.70;99.90
19728;DHT22;10015;52.530;13.390;2024-03-25T02:22:36;7.70;99.90
19728;DHT22;10015;52.530;13.390;2024-03-25T02:25:06;7.70;99.90
19728;DHT22;10015;52.530;13.390;2024-03-25T02:27:37;7.80;99.90
19728;DHT22;10015;52.530;13.390;2024-03-25T02:32:35;7.80;99.90
19728;DHT22;10015;52.530;13.390;2024-03-25T02:35:03;7.90;99.90
19728;DHT22;10015;52.530;13.390;2024-03-25T02:37:30;7.80;99.90
19728;DHT22;10015;52.530;13.390;2024-03-25T02:39:58;7.80;99.90
19728;DHT22;10015;52.530;13.390;2024-03-25T02:42:29;7.70;99.90
19728;DHT22;10015;52.530;13.390;2024-03-25T02:44:55;7.70;99.90
19728;DHT22;10015;52.530;13.390;2024-03-25T02:47:22;7.70;99.90
19728;DHT22;10015;52.530;13.390;2024-03-25T02:49:48;7.60;99.90
19728;DHT22;10015;52.530;13.390;2024-03-25T02:52:14;7.50;99.90
19728;DHT22;10015;52.530;13.390;2024-03-25T02:54:40;7.40;99.90
19728;DHT22;10015;52.530;13.390;2024-03-25T02:57:06;7.40;99.90
19728;DHT22;10015;52.530;13.390;2024-03-25T02:59:32;7.40;99.90
19728;DHT22;10015;52.530;13.390;2024-03-25T03:01:58;7.40;99.90
19728;DHT22;10015;52.530;13.390;2024-03-25T03:04:24;7.40;99.90
19728;DHT22;10015;52.530;13.390;2024-03-25T03:06:50;7.40;99.90
19728;DHT22;10015;52.530;13.390;2024-03-25T03:09:16;7.50;99.90
19728;DHT22;10015;52.530;13.390;2024-03-25T03:11:42;7.60;99.90
19728;DHT22;10015;52.530;13.390;2024-03-25T03:14:08;7.60;99.90
19728;DHT22;10015;52.530;13.390;2024-03-25T03:16:33;7.70;99.90
19728;DHT22;10015;52.530;13.390;2024-03-25T03:18:59;7.70;99.90
19728;DHT22;10015;52.530;13.390;2024-03-25T03:21:25;7.70;99.90
19728;DHT22;10015;52.530;13.390;2024-03-25T03:23:51;7.70;99.90
19728;DHT22;10015;52.530;13.390;2024-03-25T03:26:17;7.70;99.90
19728;DHT22;10015;52.530;13.390;2024-03-25T03:28:43;7.70;99.90
19728;DHT22;10015;52.530;13.390;2024-03-25T03:31:09;7.70;99.90
19728;DHT22;10015;52.530;13.390;2024-03-25T03:33:35;7.80;99.90
19728;DHT22;10015;52.530;13.390;2024-03-25T03:36:01;7.80;99.90
19728;DHT22;10015;52.530;13.390;2024-03-25T03:38:27;7.80;99.90
19728;DHT22;10015;52.530;13.390;2024-03-25T03:41:00;7.80;99.90
19728;DHT22;10015;52.530;13.390;2024-03-25T03:43:26;7.80;99.90
19728;DHT22;10015;52.530;13.390;2024-03-25T03:45:52;7.80;99.90
19728;DHT22;10015;52.530;13.390;2024-03-25T03:48:18;7.80;99.90
19728;DHT22;10015;52.530;13.390;2024-03-25T03:50:44;7.80;99.90
19728;DHT22;10015;52.530;13.390;2024-03-25T03:53:10;7.70;99.90
19728;DHT22;10015;52.530;13.390;2024-03-25T03:55:36;7.70;99.90
19728;DHT22;10015;52.530;13.390;2024-03-25T03:58:03;7.70;99.90
19728;DHT22;10015;52.530;13.390;2024-03-25T04:00:29;7.70;99.90
19728;DHT22;10015;52.530;13.390;2024-03-25T04:02:55;7.60;99.90
19728;DHT22;10015;52.530;13.390;2024-03-25T04:05:21;7.60;99.90
19728;DHT22;10015;52.530;13.390;2024-03-25T04:07:47;7.60;99.90
19728;DHT22;10015;52.530;13.390;2024-03-25T04:10:12;7.50;99.90
19728;DHT22;10015;52.530;13.390;2024-03-25T04:12:41;7.50;99.90
19728;DHT22;10015;52.530;13.390;2024-03-25T04:15:07;7.50;99.90
19728;DHT22;10015;52.530;13.390;2024-03-25T04:17:33;7.50;99.90
19728;DHT22;10015;52.530;13.390;2024-03-25T04:20:00;7.50;99.90
19728;DHT22;10015;52.530;13.390;2024-03-25T04:22:26;7.30;99.90
19728;DHT22;10015;52.530;13.390;2024-03-25T04:24:52;7.30;99.90
19728;DHT22;10015;52.530;13.390;2024-03-25T04:27:18;7.40;99.90
19728;DHT22;10015;52.530;13.390;2024-03-25T04:29:46;7.40;99.90
19728;DHT22;10015;52.530;13.390;2024-03-25T04:32:12;7.40;99.90
19728;DHT22;10015;52.530;13.390;2024-03-25T04:34:38;7.30;99.90
19728;DHT22;10015;52.530;13.390;2024-03-25T04:37:04;7.30;99.90
19728;DHT22;10015;52.530;13.390;2024-03-25T04:39:30;7.30;99.90
19728;DHT22;10015;52.530;13.390;2024-03-25T04:41:56;7.30;99.90
19728;DHT22;10015;52.530;13.390;2024-03-25T04:44:23;7.30;99.90
19728;DHT22;10015;52.530;13.390;2024-03-25T04:46:49;7.20;99.90
19728;DHT22;10015;52.530;13.390;2024-03-25T04:49:15;7.30;99.90
19728;DHT22;10015;52.530;13.390;2024-03-25T04:51:41;7.30;99.90
19728;DHT22;10015;52.530;13.390;2024-03-25T04:54:06;7.30;99.90
19728;DHT22;10015;52.530;13.390;2024-03-25T04:56:32;7.30;99.90
19728;DHT22;10015;52.530;13.390;2024-03-25T04:58:58;7.40;99.90
19728;DHT22;10015;52.530;13.390;2024-03-25T05:01:27;7.40;99.90
19728;DHT22;10015;52.530;13.390;2024-03-25T05:03:54;7.40;99.90
19728;DHT22;10015;52.530;13.390;2024-03-25T05:06:19;7.20;99.90
19728;DHT22;10015;52.530;13.390;2024-03-25T05:08:45;7.10;99.90
19728;DHT22;10015;52.530;13.390;2024-03-25T05:11:13;7.10;99.90
19728;DHT22;10015;52.530;13.390;2024-03-25T05:13:39;7.20;99.90
19728;DHT22;10015;52.530;13.390;2024-03-25T05:16:05;7.20;99.90
19728;DHT22;10015;52.530;13.390;2024-03-25T05:18:31;7.20;99.90
19728;DHT22;10015;52.530;13.390;2024-03-25T05:20:57;7.20;99.90
19728;DHT22;10015;52.530;13.390;2024-03-25T05:23:23;7.30;99.90
19728;DHT22;10015;52.530;13.390;2024-03-25T05:25:49;7.30;99.90
19728;DHT22;10015;52.530;13.390;2024-03-25T05:28:15;7.40;99.90
19728;DHT22;10015;52.530;13.390;2024-03-25T05:30:41;7.40;99.90
19728;DHT22;10015;52.530;13.390;2024-03-25T05:33:07;7.50;99.90
19728;DHT22;10015;52.530;13.390;2024-03-25T05:35:32;7.60;99.90
19728;DHT22;10015;52.530;13.390;2024-03-25T05:38:02;7.70;99.90
19728;DHT22;10015;52.530;13.390;2024-03-25T05:40:29;7.60;99.90
19728;DHT22;10015;52.530;13.390;2024-03-25T05:42:55;7.60;99.90
19728;DHT22;10015;52.530;13.390;2024-03-25T05:45:21;7.60;99.90
19728;DHT22;10015;52.530;13.390;2024-03-25T05:47:47;7.70;99.90
19728;DHT22;10015;52.530;13.390;2024-03-25T05:50:15;7.70;99.90
19728;DHT22;10015;52.530;13.390;2024-03-25T05:52:41;7.70;99.90
19728;DHT22;10015;52.530;13.390;2024-03-25T05:55:08;7.70;99.90
19728;DHT22;10015;52.530;13.390;2024-03-25T05:57:36;7.70;99.90
19728;DHT22;10015;52.530;13.390;2024-03-25T06:00:02;7.70;99.90
19728;DHT22;10015;52.530;13.390;2024-03-25T06:02:37;7.70;99.90
19728;DHT22;10015;52.530;13.390;2024-03-25T06:05:04;7.60;99.90
19728;DHT22;10015;52.530;13.390;2024-03-25T06:07:30;7.50;99.90
19728;DHT22;10015;52.530;13.390;2024-03-25T06:09:56;7.50;99.90
19728;DHT22;10015;52.530;13.390;2024-03-25T06:12:22;7.40;99.90
19728;DHT22;10015;52.530;13.390;2024-03-25T06:14:48;7.40;99.90
19728;DHT22;10015;52.530;13.390;2024-03-25T06:17:15;7.40;99.90
19728;DHT22;10015;52.530;13.390;2024-03-25T06:19:42;7.40;99.90
19728;DHT22;10015;52.530;13.390;2024-03-25T06:22:08;7.30;99.90
19728;DHT22;10015;52.530;13.390;2024-03-25T06:24:34;7.40;99.90
19728;DHT22;10015;52.530;13.390;2024-03-25T06:27:00;7.50;99.90
19728;DHT22;10015;52.530;13.390;2024-03-25T06:29:25;7.50;99.90
19728;DHT22;10015;52.530;13.390;2024-03-25T06:31:51;7.40;99.90
19728;DHT22;10015;52.530;13.390;2024-03-25T06:34:36;7.40;99.90
19728;DHT22;10015;52.530;13.390;2024-03-25T06:37:02;7.40;99.90
19728;DHT22;10015;52.530;13.390;2024-03-25T06:39:30;7.30;99.90
19728;DHT22;10015;52.530;13.390;2024-03-25T06:41:56;7.40;99.90
19728;DHT22;10015;52.530;13.390;2024-03-25T06:44:21;7.50;99.90
19728;DHT22;10015;52.530;13.390;2024-03-25T06:46:47;7.40;99.90
19728;DHT22;10015;52.530;13.390;2024-03-25T06:49:13;7.40;99.90
19728;DHT22;10015;52.530;13.390;2024-03-25T06:51:39;7.40;99.90
19728;DHT22;10015;52.530;13.390;2024-03-25T06:54:05;7.50;99.90
19728;DHT22;10015;52.530;13.390;2024-03-25T06:56:31;7.50;99.90
19728;DHT22;10015;52.530;13.390;2024-03-25T06:58:56;7.50;99.90
19728;DHT22;10015;52.530;13.390;2024-03-25T07:01:22;7.40;99.90
19728;DHT22;10015;52.530;13.390;2024-03-25T07:03:48;7.30;99.90
19728;DHT22;10015;52.530;13.390;2024-03-25T07:06:14;7.40;99.90
19728;DHT22;10015;52.530;13.390;2024-03-25T07:08:40;7.70;99.90
19728;DHT22;10015;52.530;13.390;2024-03-25T07:11:06;7.80;99.90
19728;DHT22;10015;52.530;13.390;2024-03-25T07:13:32;7.60;99.90
19728;DHT22;10015;52.530;13.390;2024-03-25T07:16:03;7.60;99.90
19728;DHT22;10015;52.530;13.390;2024-03-25T07:18:29;7.50;99.90
19728;DHT22;10015;52.530;13.390;2024-03-25T07:20:55;7.60;99.90
19728;DHT22;10015;52.530;13.390;2024-03-25T07:23:21;7.60;99.90
19728;DHT22;10015;52.530;13.390;2024-03-25T07:25:47;7.70;99.90
19728;DHT22;10015;52.530;13.390;2024-03-25T07:28:13;7.70;99.90
19728;DHT22;10015;52.530;13.390;2024-03-25T07:30:39;7.80;99.90
19728;DHT22;10015;52.530;13.390;2024-03-25T07:33:05;7.90;99.90
19728;DHT22;10015;52.530;13.390;2024-03-25T07:35:31;7.90;99.90
19728;DHT22;10015;52.530;13.390;2024-03-25T07:37:57;8.00;99.90
19728;DHT22;10015;52.530;13.390;2024-03-25T07:40:23;7.80;99.90
19728;DHT22;10015;52.530;13.390;2024-03-25T07:42:49;7.80;99.90
19728;DHT22;10015;52.530;13.390;2024-03-25T07:45:15;7.90;99.90
19728;DHT22;10015;52.530;13.390;2024-03-25T07:47:41;7.90;99.90
19728;DHT22;10015;52.530;13.390;2024-03-25T07:50:08;7.90;99.90
19728;DHT22;10015;52.530;13.390;2024-03-25T07:52:35;7.90;99.90
19728;DHT22;10015;52.530;13.390;2024-03-25T07:55:07;7.70;99.90
19728;DHT22;10015;52.530;13.390;2024-03-25T07:57:33;7.70;99.90
19728;DHT22;10015;52.530;13.390;2024-03-25T07:59:59;7.70;99.90
19728;DHT22;10015;52.530;13.390;2024-03-25T08:02:25;7.70;99.90
19728;DHT22;10015;52.530;13.390;2024-03-25T08:04:51;7.60;99.90
19728;DHT22;10015;52.530;13.390;2024-03-25T08:07:17;7.50;99.90
19728;DHT22;10015;52.530;13.390;2024-03-25T08:09:43;7.40;99.90
19728;DHT22;10015;52.530;13.390;2024-03-25T08:12:09;7.50;99.90
19728;DHT22;10015;52.530;13.390;2024-03-25T08:14:34;7.40;99.90
19728;DHT22;10015;52.530;13.390;2024-03-25T08:17:00;7.40;99.90
19728;DHT22;10015;52.530;13.390;2024-03-25T08:19:26;7.40;99.90
19728;DHT22;10015;52.530;13.390;2024-03-25T08:21:52;7.40;99.90
19728;DHT22;10015;52.530;13.390;2024-03-25T08:24:18;7.50;99.90
19728;DHT22;10015;52.530;13.390;2024-03-25T08:26:44;7.70;99.90
19728;DHT22;10015;52.530;13.390;2024-03-25T08:29:10;7.80;99.90
19728;DHT22;10015;52.530;13.390;2024-03-25T08:31:36;7.90;99.90
19728;DHT22;10015;52.530;13.390;2024-03-25T08:34:02;7.90;99.90
19728;DHT22;10015;52.530;13.390;2024-03-25T08:36:28;8.00;99.90
19728;DHT22;10015;52.530;13.390;2024-03-25T08:38:54;8.10;99.90
19728;DHT22;10015;52.530;13.390;2024-03-25T08:41:20;8.10;99.90
19728;DHT22;10015;52.530;13.390;2024-03-25T08:43:45;8.10;99.90
19728;DHT22;10015;52.530;13.390;2024-03-25T08:46:11;8.10;99.90
19728;DHT22;10015;52.530;13.390;2024-03-25T08:48:37;8.10;99.90
19728;DHT22;10015;52.530;13.390;2024-03-25T08:51:03;8.20;99.90
19728;DHT22;10015;52.530;13.390;2024-03-25T08:53:29;8.30;99.90
19728;DHT22;10015;52.530;13.390;2024-03-25T08:55:55;8.20;99.90
19728;DHT22;10015;52.530;13.390;2024-03-25T08:58:21;8.10;99.90
19728;DHT22;10015;52.530;13.390;2024-03-25T09:00:47;8.10;99.90
19728;DHT22;10015;52.530;13.390;2024-03-25T09:03:13;8.00;99.90
19728;DHT22;10015;52.530;13.390;2024-03-25T09:05:39;8.20;99.90
19728;DHT22;10015;52.530;13.390;2024-03-25T09:08:08;8.10;99.90
19728;DHT22;10015;52.530;13.390;2024-03-25T09:10:37;8.00;99.90
19728;DHT22;10015;52.530;13.390;2024-03-25T09:13:22;8.00;99.90
19728;DHT22;10015;52.530;13.390;2024-03-25T09:15:50;7.90;99.90
19728;DHT22;10015;52.530;13.390;2024-03-25T09:18:20;8.10;99.90
19728;DHT22;10015;52.530;13.390;2024-03-25T09:20:46;8.20;99.90
19728;DHT22;10015;52.530;13.390;2024-03-25T09:23:12;8.30;99.90
19728;DHT22;10015;52.530;13.390;2024-03-25T09:25:38;8.30;99.90
19728;DHT22;10015;52.530;13.390;2024-03-25T09:28:04;8.40;99.90
19728;DHT22;10015;52.530;13.390;2024-03-25T09:30:30;8.20;99.90
19728;DHT22;10015;52.530;13.390;2024-03-25T09:32:56;8.20;99.90
19728;DHT22;10015;52.530;13.390;2024-03-25T09:35:23;8.20;99.90
19728;DHT22;10015;52.530;13.390;2024-03-25T09:37:49;8.30;99.90
19728;DHT22;10015;52.530;13.390;2024-03-25T09:40:15;8.20;99.90
19728;DHT22;10015;52.530;13.390;2024-03-25T09:42:48;8.30;99.90
19728;DHT22;10015;52.530;13.390;2024-03-25T09:45:18;8.50;99.90
19728;DHT22;10015;52.530;13.390;2024-03-25T09:47:46;8.50;99.90
19728;DHT22;10015;52.530;13.390;2024-03-25T09:50:15;8.50;99.90
19728;DHT22;10015;52.530;13.390;2024-03-25T09:52:51;8.50;99.90
19728;DHT22;10015;52.530;13.390;2024-03-25T09:55:17;8.40;99.90
19728;DHT22;10015;52.530;13.390;2024-03-25T09:57:45;8.30;99.90
19728;DHT22;10015;52.530;13.390;2024-03-25T10:00:11;8.20;99.90
19728;DHT22;10015;52.530;13.390;2024-03-25T10:02:44;8.30;99.90
19728;DHT22;10015;52.530;13.390;2024-03-25T10:05:10;8.40;99.90
19728;DHT22;10015;52.530;13.390;2024-03-25T10:07:36;8.60;99.90
19728;DHT22;10015;52.530;13.390;2024-03-25T10:10:05;8.80;99.90
19728;DHT22;10015;52.530;13.390;2024-03-25T10:12:32;8.90;99.90
19728;DHT22;10015;52.530;13.390;2024-03-25T10:14:58;9.10;99.90
19728;DHT22;10015;52.530;13.390;2024-03-25T10:17:25;9.10;99.90
19728;DHT22;10015;52.530;13.390;2024-03-25T10:19:53;9.10;99.90
19728;DHT22;10015;52.530;13.390;2024-03-25T10:22:19;9.10;99.90
19728;DHT22;10015;52.530;13.390;2024-03-25T10:24:45;8.90;99.90
19728;DHT22;10015;52.530;13.390;2024-03-25T10:27:18;8.90;99.90
19728;DHT22;10015;52.530;13.390;2024-03-25T10:29:47;8.90;99.90
19728;DHT22;10015;52.530;13.390;2024-03-25T10:32:13;9.00;99.90
19728;DHT22;10015;52.530;13.390;2024-03-25T10:34:40;9.10;99.90
19728;DHT22;10015;52.530;13.390;2024-03-25T10:37:09;9.00;99.90
19728;DHT22;10015;52.530;13.390;2024-03-25T10:39:39;9.00;99.90
19728;DHT22;10015;52.530;13.390;2024-03-25T10:42:06;9.00;99.90
19728;DHT22;10015;52.530;13.390;2024-03-25T10:44:33;8.90;99.90
19728;DHT22;10015;52.530;13.390;2024-03-25T10:47:02;8.80;99.90
19728;DHT22;10015;52.530;13.390;2024-03-25T10:49:55;8.80;99.90
19728;DHT22;10015;52.530;13.390;2024-03-25T10:52:22;9.00;99.90
19728;DHT22;10015;52.530;13.390;2024-03-25T10:54:50;9.20;99.90
19728;DHT22;10015;52.530;13.390;2024-03-25T10:57:17;9.30;99.90
19728;DHT22;10015;52.530;13.390;2024-03-25T10:59:45;9.40;99.90
19728;DHT22;10015;52.530;13.390;2024-03-25T11:02:12;9.60;99.90
19728;DHT22;10015;52.530;13.390;2024-03-25T11:04:39;9.80;99.90
19728;DHT22;10015;52.530;13.390;2024-03-25T11:07:13;9.80;99.90
19728;DHT22;10015;52.530;13.390;2024-03-25T11:09:40;9.70;99.90
19728;DHT22;10015;52.530;13.390;2024-03-25T11:12:07;9.80;99.90
19728;DHT22;10015;52.530;13.390;2024-03-25T11:14:35;9.90;99.90
19728;DHT22;10015;52.530;13.390;2024-03-25T11:17:02;10.00;99.90
19728;DHT22;10015;52.530;13.390;2024-03-25T11:19:29;10.00;99.90
19728;DHT22;10015;52.530;13.390;2024-03-25T11:22:07;10.00;99.90
19728;DHT22;10015;52.530;13.390;2024-03-25T11:24:34;10.10;99.90
19728;DHT22;10015;52.530;13.390;2024-03-25T11:27:07;10.20;99.90
19728;DHT22;10015;52.530;13.390;2024-03-25T11:29:34;10.30;99.90
19728;DHT22;10015;52.530;13.390;2024-03-25T11:32:04;10.30;99.90
19728;DHT22;10015;52.530;13.390;2024-03-25T11:34:31;10.50;99.90
19728;DHT22;10015;52.530;13.390;2024-03-25T11:36:57;10.70;99.90
19728;DHT22;10015;52.530;13.390;2024-03-25T11:39:24;11.00;99.90
19728;DHT22;10015;52.530;13.390;2024-03-25T11:41:52;11.10;99.90
19728;DHT22;10015;52.530;13.390;2024-03-25T11:44:19;11.00;99.90
19728;DHT22;10015;52.530;13.390;2024-03-25T11:46:46;11.00;99.90
19728;DHT22;10015;52.530;13.390;2024-03-25T11:49:16;10.90;99.90
19728;DHT22;10015;52.530;13.390;2024-03-25T11:51:44;10.80;99.90
19728;DHT22;10015;52.530;13.390;2024-03-25T11:54:12;10.80;99.90
19728;DHT22;10015;52.530;13.390;2024-03-25T11:56:40;10.80;99.90
19728;DHT22;10015;52.530;13.390;2024-03-25T11:59:07;10.50;99.90
19728;DHT22;10015;52.530;13.390;2024-03-25T12:01:33;10.60;99.90
19728;DHT22;10015;52.530;13.390;2024-03-25T12:04:18;10.60;99.90
19728;DHT22;10015;52.530;13.390;2024-03-25T12:06:45;10.50;99.90
19728;DHT22;10015;52.530;13.390;2024-03-25T12:09:11;10.50;99.90
19728;DHT22;10015;52.530;13.390;2024-03-25T12:11:57;10.30;99.90
19728;DHT22;10015;52.530;13.390;2024-03-25T12:14:25;10.30;99.90
19728;DHT22;10015;52.530;13.390;2024-03-25T12:16:58;10.40;99.90
19728;DHT22;10015;52.530;13.390;2024-03-25T12:19:25;10.60;99.90
19728;DHT22;10015;52.530;13.390;2024-03-25T12:21:59;10.70;99.90
19728;DHT22;10015;52.530;13.390;2024-03-25T12:24:26;10.80;99.90
19728;DHT22;10015;52.530;13.390;2024-03-25T12:26:52;10.80;99.90
19728;DHT22;10015;52.530;13.390;2024-03-25T12:29:18;10.50;99.90
19728;DHT22;10015;52.530;13.390;2024-03-25T12:31:56;10.50;99.90
19728;DHT22;10015;52.530;13.390;2024-03-25T12:34:24;10.40;99.90
19728;DHT22;10015;52.530;13.390;2024-03-25T12:36:50;10.50;99.90
19728;DHT22;10015;52.530;13.390;2024-03-25T12:39:17;10.50;99.90
19728;DHT22;10015;52.530;13.390;2024-03-25T12:41:44;10.60;99.90
19728;DHT22;10015;52.530;13.390;2024-03-25T12:44:14;10.60;99.90
19728;DHT22;10015;52.530;13.390;2024-03-25T12:46:40;10.60;99.90
19728;DHT22;10015;52.530;13.390;2024-03-25T12:49:06;10.80;99.90
19728;DHT22;10015;52.530;13.390;2024-03-25T12:51:32;10.80;99.90
19728;DHT22;10015;52.530;13.390;2024-03-25T12:53:58;10.50;99.90
19728;DHT22;10015;52.530;13.390;2024-03-25T12:56:25;10.30;99.90
19728;DHT22;10015;52.530;13.390;2024-03-25T12:58:51;10.30;99.90
19728;DHT22;10015;52.530;13.390;2024-03-25T13:01:17;10.30;99.90
19728;DHT22;10015;52.530;13.390;2024-03-25T13:03:43;10.50;99.90
19728;DHT22;10015;52.530;13.390;2024-03-25T13:06:10;10.30;99.90
19728;DHT22;10015;52.530;13.390;2024-03-25T13:08:36;10.20;99.90
19728;DHT22;10015;52.530;13.390;2024-03-25T13:11:04;10.30;99.90
19728;DHT22;10015;52.530;13.390;2024-03-25T13:13:31;10.50;99.90
19728;DHT22;10015;52.530;13.390;2024-03-25T13:15:57;10.60;99.90
19728;DHT22;10015;52.530;13.390;2024-03-25T13:18:23;10.70;99.90
19728;DHT22;10015;52.530;13.390;2024-03-25T13:20:49;10.70;99.90
19728;DHT22;10015;52.530;13.390;2024-03-25T13:23:15;10.80;99.90
19728;DHT22;10015;52.530;13.390;2024-03-25T13:25:42;10.70;99.90
19728;DHT22;10015;52.530;13.390;2024-03-25T13:28:08;10.60;99.90
19728;DHT22;10015;52.530;13.390;2024-03-25T13:30:34;10.50;99.90
19728;DHT22;10015;52.530;13.390;2024-03-25T13:33:00;10.50;99.90
19728;DHT22;10015;52.530;13.390;2024-03-25T13:35:26;10.60;99.90
19728;DHT22;10015;52.530;13.390;2024-03-25T13:37:52;10.60;99.90
19728;DHT22;10015;52.530;13.390;2024-03-25T13:40:19;10.80;99.90
19728;DHT22;10015;52.530;13.390;2024-03-25T13:42:45;11.00;99.90
19728;DHT22;10015;52.530;13.390;2024-03-25T13:45:12;11.20;99.90
19728;DHT22;10015;52.530;13.390;2024-03-25T13:47:39;11.30;99.90
19728;DHT22;10015;52.530;13.390;2024-03-25T13:50:06;11.30;99.90
19728;DHT22;10015;52.530;13.390;2024-03-25T13:52:36;11.20;99.90
19728;DHT22;10015;52.530;13.390;2024-03-25T13:55:03;11.20;99.90
19728;DHT22;10015;52.530;13.390;2024-03-25T13:57:29;11.20;99.90
19728;DHT22;10015;52.530;13.390;2024-03-25T13:59:55;11.20;99.90
19728;DHT22;10015;52.530;13.390;2024-03-25T14:02:23;11.30;99.90
19728;DHT22;10015;52.530;13.390;2024-03-25T14:04:49;11.20;99.90
19728;DHT22;10015;52.530;13.390;2024-03-25T14:07:15;11.10;99.90
19728;DHT22;10015;52.530;13.390;2024-03-25T14:09:41;11.00;99.90
19728;DHT22;10015;52.530;13.390;2024-03-25T14:12:07;11.00;99.90
19728;DHT22;10015;52.530;13.390;2024-03-25T14:14:33;11.00;99.90
19728;DHT22;10015;52.530;13.390;2024-03-25T14:16:59;11.20;99.90
19728;DHT22;10015;52.530;13.390;2024-03-25T14:19:25;11.30;99.90
19728;DHT22;10015;52.530;13.390;2024-03-25T14:21:51;11.30;99.90
19728;DHT22;10015;52.530;13.390;2024-03-25T14:24:17;11.30;99.90
19728;DHT22;10015;52.530;13.390;2024-03-25T14:26:43;11.30;99.90
19728;DHT22;10015;52.530;13.390;2024-03-25T14:29:09;11.40;99.90
19728;DHT22;10015;52.530;13.390;2024-03-25T14:31:35;11.20;99.90
19728;DHT22;10015;52.530;13.390;2024-03-25T14:34:01;11.30;99.90
19728;DHT22;10015;52.530;13.390;2024-03-25T14:36:27;11.30;99.90
19728;DHT22;10015;52.530;13.390;2024-03-25T14:38:53;11.20;99.90
19728;DHT22;10015;52.530;13.390;2024-03-25T14:41:20;11.20;99.90
19728;DHT22;10015;52.530;13.390;2024-03-25T14:43:46;11.10;99.90
19728;DHT22;10015;52.530;13.390;2024-03-25T14:46:14;11.00;99.90
19728;DHT22;10015;52.530;13.390;2024-03-25T14:48:40;10.90;99.90
19728;DHT22;10015;52.530;13.390;2024-03-25T14:51:06;11.00;99.90
19728;DHT22;10015;52.530;13.390;2024-03-25T14:53:32;10.90;99.90
19728;DHT22;10015;52.530;13.390;2024-03-25T14:55:58;11.00;99.90
19728;DHT22;10015;52.530;13.390;2024-03-25T14:58:24;11.20;99.90
19728;DHT22;10015;52.530;13.390;2024-03-25T15:00:50;11.50;99.90
19728;DHT22;10015;52.530;13.390;2024-03-25T15:03:16;11.80;99.90
19728;DHT22;10015;52.530;13.390;2024-03-25T15:05:42;12.00;99.90
19728;DHT22;10015;52.530;13.390;2024-03-25T15:08:08;12.10;99.90
19728;DHT22;10015;52.530;13.390;2024-03-25T15:10:34;12.20;99.90
19728;DHT22;10015;52.530;13.390;2024-03-25T15:13:01;12.30;99.90
19728;DHT22;10015;52.530;13.390;2024-03-25T15:15:27;12.30;99.90
19728;DHT22;10015;52.530;13.390;2024-03-25T15:17:54;11.90;99.90
19728;DHT22;10015;52.530;13.390;2024-03-25T15:20:21;11.90;99.90
19728;DHT22;10015;52.530;13.390;2024-03-25T15:22:47;11.80;99.90
19728;DHT22;10015;52.530;13.390;2024-03-25T15:25:13;11.70;99.90
19728;DHT22;10015;52.530;13.390;2024-03-25T15:27:39;11.50;99.90